Time;durP1;ratioP1;P1;durP2;ratioP2;P2;SDS_P1;SDS_P2;PMS_P1;PMS_P2;Temp;Humidity;BMP_temperature;BMP_pressure;BME280_temperature;BME280_humidity;BME280_pressure;Samples;Min_cycle;Max_cycle;Signal;HPM_P1;HPM_P2
2021/01/25 00:00:53;;;;;;;;;;;28.50;33.00;;;;;;5089302;28;19958;-63
2021/01/25 00:03:19;;;;;;;;;;;28.50;33.10;;;;;;5077388;28;20281;-63
2021/01/25 00:05:45;;;;;;;;;;;28.50;33.10;;;;;;5082983;28;19912;-63
2021/01/25 00:08:10;;;;;;;;;;;28.40;33.10;;;;;;5081427;28;19912;-63
2021/01/25 00:10:35;;;;;;;;;;;28.40;33.20;;;;;;5073810;28;20397;-63
2021/01/25 00:13:01;;;;;;;;;;;28.30;33.10;;;;;;5074163;28;19958;-63
2021/01/25 00:15:27;;;;;;;;;;;28.30;33.20;;;;;;5073835;28;20363;-63
2021/01/25 00:17:52;;;;;;;;;;;28.30;33.30;;;;;;5074018;28;19916;-63
2021/01/25 00:20:18;;;;;;;;;;;28.30;33.30;;;;;;5084788;28;19912;-63
2021/01/25 00:22:43;;;;;;;;;;;28.30;33.30;;;;;;5093837;28;19918;-64
2021/01/25 00:25:09;;;;;;;;;;;28.30;33.30;;;;;;5074924;28;20377;-63
2021/01/25 00:27:34;;;;;;;;;;;28.30;33.30;;;;;;5085861;28;19955;-63
2021/01/25 00:29:59;;;;;;;;;;;28.20;33.20;;;;;;5073023;28;20003;-63
2021/01/25 00:32:25;;;;;;;;;;;28.20;33.80;;;;;;5080869;28;19916;-63
2021/01/25 00:34:50;;;;;;;;;;;28.20;33.90;;;;;;5083116;28;20367;-63
2021/01/25 00:37:16;;;;;;;;;;;28.20;33.20;;;;;;5084103;28;19959;-63
2021/01/25 00:39:41;;;;;;;;;;;28.20;33.20;;;;;;5092018;28;19912;-63
2021/01/25 00:42:07;;;;;;;;;;;28.20;33.20;;;;;;5077590;28;19912;-63
2021/01/25 00:44:32;;;;;;;;;;;28.20;33.30;;;;;;5073046;28;19912;-63
2021/01/25 00:46:58;;;;;;;;;;;28.20;33.20;;;;;;5088041;28;20007;-63
2021/01/25 00:49:23;;;;;;;;;;;28.20;33.30;;;;;;5089805;28;19919;-63
2021/01/25 00:51:49;;;;;;;;;;;28.20;33.30;;;;;;5073331;28;19977;-63
2021/01/25 00:54:14;;;;;;;;;;;28.20;33.30;;;;;;5072858;28;19923;-63
2021/01/25 00:56:40;;;;;;;;;;;28.10;33.30;;;;;;5073267;28;19948;-63
2021/01/25 00:59:05;;;;;;;;;;;28.10;33.30;;;;;;5077101;28;19916;-64
2021/01/25 01:01:31;;;;;;;;;;;28.10;33.30;;;;;;5073153;28;20267;-63
2021/01/25 01:03:56;;;;;;;;;;;28.10;33.30;;;;;;5073146;28;19916;-64
2021/01/25 01:06:21;;;;;;;;;;;28.10;33.30;;;;;;5075205;28;19913;-63
2021/01/25 01:08:47;;;;;;;;;;;28.10;33.30;;;;;;5089808;28;19919;-63
2021/01/25 01:11:12;;;;;;;;;;;28.10;33.40;;;;;;5081630;28;20381;-63
2021/01/25 01:13:38;;;;;;;;;;;28.10;33.30;;;;;;5092751;28;19973;-63
2021/01/25 01:16:04;;;;;;;;;;;28.10;33.30;;;;;;5084243;28;19917;-63
2021/01/25 01:18:29;;;;;;;;;;;28.10;33.30;;;;;;5089667;28;19912;-63
2021/01/25 01:20:54;;;;;;;;;;;28.00;33.30;;;;;;5079974;28;20370;-63
2021/01/25 01:23:20;;;;;;;;;;;28.00;33.30;;;;;;5074067;28;19908;-63
2021/01/25 01:25:45;;;;;;;;;;;28.00;33.30;;;;;;5090940;28;19912;-63
2021/01/25 01:28:11;;;;;;;;;;;28.00;33.30;;;;;;5074956;28;19955;-63
2021/01/25 01:30:36;;;;;;;;;;;28.00;33.30;;;;;;5072415;28;20444;-63
2021/01/25 01:33:02;;;;;;;;;;;28.00;33.30;;;;;;5073244;28;19930;-63
2021/01/25 01:35:27;;;;;;;;;;;28.00;33.30;;;;;;5076197;28;19966;-63
2021/01/25 01:37:53;;;;;;;;;;;28.00;33.30;;;;;;5073503;28;19912;-63
2021/01/25 01:40:18;;;;;;;;;;;28.00;33.30;;;;;;5078875;28;19916;-63
2021/01/25 01:42:44;;;;;;;;;;;28.00;33.30;;;;;;5092653;28;20297;-63
2021/01/25 01:45:10;;;;;;;;;;;27.90;33.30;;;;;;5092992;28;19908;-63
2021/01/25 01:47:35;;;;;;;;;;;28.00;33.30;;;;;;5095271;28;19908;-62
2021/01/25 01:50:01;;;;;;;;;;;28.00;33.30;;;;;;5087982;28;19995;-63
2021/01/25 01:52:26;;;;;;;;;;;27.90;33.20;;;;;;5095878;28;20012;-63
2021/01/25 01:54:59;;;;;;;;;;;28.00;33.30;;;;;;5084366;28;20377;-63
2021/01/25 01:57:24;;;;;;;;;;;27.90;33.20;;;;;;5093002;28;19912;-63
2021/01/25 01:59:50;;;;;;;;;;;27.90;33.30;;;;;;5096809;28;19991;-63
2021/01/25 02:02:15;;;;;;;;;;;27.90;33.30;;;;;;5078215;28;20354;-63
2021/01/25 02:04:40;;;;;;;;;;;27.90;33.30;;;;;;5096422;28;20262;-63
2021/01/25 02:07:06;;;;;;;;;;;27.90;33.30;;;;;;5090397;28;19916;-63
2021/01/25 02:09:32;;;;;;;;;;;27.90;33.30;;;;;;5059424;28;19912;-62
2021/01/25 02:11:58;;;;;;;;;;;27.90;33.30;;;;;;5078526;28;19912;-63
2021/01/25 02:14:23;;;;;;;;;;;27.90;33.30;;;;;;5096297;28;19916;-63
2021/01/25 02:16:48;;;;;;;;;;;27.90;33.30;;;;;;5087823;28;19916;-63
2021/01/25 02:19:15;;;;;;;;;;;27.80;33.30;;;;;;5090989;28;20336;-63
2021/01/25 02:21:42;;;;;;;;;;;27.90;33.30;;;;;;5077825;28;20304;-63
2021/01/25 02:24:15;;;;;;;;;;;27.90;33.30;;;;;;5078138;28;20361;-63
2021/01/25 02:26:49;;;;;;;;;;;27.80;33.20;;;;;;5065263;28;19913;-63
2021/01/25 02:29:14;;;;;;;;;;;27.80;33.30;;;;;;5057835;28;20635;-63
2021/01/25 02:31:40;;;;;;;;;;;27.80;33.30;;;;;;5084463;28;19931;-63
2021/01/25 02:34:05;;;;;;;;;;;27.80;33.30;;;;;;5077111;28;20016;-63
2021/01/25 02:36:31;;;;;;;;;;;27.80;33.30;;;;;;5076012;28;19919;-62
2021/01/25 02:38:56;;;;;;;;;;;27.80;33.30;;;;;;5077873;28;20011;-63
2021/01/25 02:41:22;;;;;;;;;;;27.80;33.30;;;;;;5068435;28;20427;-63
2021/01/25 02:43:48;;;;;;;;;;;27.80;33.90;;;;;;5075389;28;19911;-63
2021/01/25 02:46:14;;;;;;;;;;;27.80;33.30;;;;;;5061205;28;19938;-63
2021/01/25 02:48:39;;;;;;;;;;;27.80;33.30;;;;;;5075486;28;19963;-63
2021/01/25 02:51:05;;;;;;;;;;;27.80;33.30;;;;;;5077078;28;19937;-63
2021/01/25 02:53:30;;;;;;;;;;;27.80;33.20;;;;;;5095764;28;20370;-62
2021/01/25 02:55:56;;;;;;;;;;;27.80;33.20;;;;;;5091677;28;19917;-63
2021/01/25 02:58:21;;;;;;;;;;;27.80;33.30;;;;;;5073896;28;19944;-62
2021/01/25 03:00:47;;;;;;;;;;;27.80;33.30;;;;;;5059947;28;19912;-63
2021/01/25 03:03:13;;;;;;;;;;;27.80;33.30;;;;;;5083301;28;20370;-63
2021/01/25 03:05:38;;;;;;;;;;;27.80;33.20;;;;;;5075885;28;19955;-62
2021/01/25 03:08:04;;;;;;;;;;;27.80;33.20;;;;;;5077124;28;19908;-63
2021/01/25 03:10:30;;;;;;;;;;;27.80;33.20;;;;;;5073063;28;19920;-63
2021/01/25 03:12:59;;;;;;;;;;;27.80;33.90;;;;;;5075912;28;19915;-62
2021/01/25 03:15:24;;;;;;;;;;;27.70;33.20;;;;;;5094990;28;20376;-62
2021/01/25 03:17:50;;;;;;;;;;;27.70;33.20;;;;;;5065436;28;19916;-63
2021/01/25 03:20:15;;;;;;;;;;;27.80;33.20;;;;;;5074783;28;19985;-63
2021/01/25 03:22:41;;;;;;;;;;;27.70;33.20;;;;;;5074670;28;19919;-63
2021/01/25 03:25:07;;;;;;;;;;;27.80;33.20;;;;;;5084693;28;19918;-63
2021/01/25 03:27:32;;;;;;;;;;;27.80;33.20;;;;;;5090082;28;19912;-63
2021/01/25 03:29:57;;;;;;;;;;;27.70;33.10;;;;;;5079486;28;19925;-63
2021/01/25 03:32:23;;;;;;;;;;;27.70;33.20;;;;;;5076839;28;20010;-63
2021/01/25 03:34:48;;;;;;;;;;;27.70;33.20;;;;;;5075747;28;19942;-63
2021/01/25 03:37:14;;;;;;;;;;;27.70;33.20;;;;;;5091083;28;19934;-63
2021/01/25 03:39:39;;;;;;;;;;;27.70;33.20;;;;;;5094823;28;19961;-63
2021/01/25 03:42:05;;;;;;;;;;;27.70;33.20;;;;;;5094069;28;20337;-63
2021/01/25 03:44:30;;;;;;;;;;;27.70;33.20;;;;;;5074235;28;19954;-63
2021/01/25 03:46:56;;;;;;;;;;;27.70;33.20;;;;;;5079402;28;19920;-63
2021/01/25 03:49:21;;;;;;;;;;;27.70;33.20;;;;;;5079926;28;20282;-63
2021/01/25 03:51:47;;;;;;;;;;;27.70;33.10;;;;;;5085890;28;19919;-63
2021/01/25 03:54:12;;;;;;;;;;;27.70;33.10;;;;;;5073818;28;20003;-63
2021/01/25 03:56:38;;;;;;;;;;;27.70;33.20;;;;;;5087170;28;19912;-62
2021/01/25 03:59:04;;;;;;;;;;;27.70;33.20;;;;;;5073927;28;19955;-62
2021/01/25 04:01:29;;;;;;;;;;;27.70;33.20;;;;;;5073790;28;19909;-63
2021/01/25 04:03:55;;;;;;;;;;;27.70;33.20;;;;;;5067197;28;20354;-62
2021/01/25 04:06:20;;;;;;;;;;;27.70;33.20;;;;;;5080343;28;20282;-63
2021/01/25 04:08:46;;;;;;;;;;;27.70;33.20;;;;;;5093508;28;20270;-63
2021/01/25 04:11:12;;;;;;;;;;;27.60;33.10;;;;;;5088655;28;19916;-63
2021/01/25 04:13:37;;;;;;;;;;;27.70;33.10;;;;;;5079022;28;19920;-63
2021/01/25 04:16:03;;;;;;;;;;;27.70;33.10;;;;;;5093782;28;19908;-63
2021/01/25 04:18:28;;;;;;;;;;;27.70;33.10;;;;;;5093783;28;19943;-63
2021/01/25 04:20:54;;;;;;;;;;;27.60;33.00;;;;;;5090997;28;19938;-63
2021/01/25 04:23:19;;;;;;;;;;;27.70;33.10;;;;;;5073640;28;20384;-62
2021/01/25 04:25:45;;;;;;;;;;;27.70;33.10;;;;;;5089198;28;19954;-62
2021/01/25 04:28:11;;;;;;;;;;;27.60;33.00;;;;;;5090257;28;19912;-63
2021/01/25 04:30:36;;;;;;;;;;;27.60;33.00;;;;;;5088666;28;19974;-63
2021/01/25 04:33:02;;;;;;;;;;;27.60;33.00;;;;;;5082848;28;19966;-62
2021/01/25 04:35:27;;;;;;;;;;;27.60;33.00;;;;;;5093504;28;19916;-63
2021/01/25 04:37:53;;;;;;;;;;;27.60;33.00;;;;;;5091644;28;20427;-63
2021/01/25 04:40:18;;;;;;;;;;;27.60;33.00;;;;;;5086890;28;19912;-62
2021/01/25 04:42:44;;;;;;;;;;;27.60;33.00;;;;;;5073282;28;19908;-63
2021/01/25 04:45:10;;;;;;;;;;;27.60;33.00;;;;;;5093421;28;19915;-62
2021/01/25 04:47:36;;;;;;;;;;;27.60;33.00;;;;;;5087929;28;19991;-63
2021/01/25 04:50:02;;;;;;;;;;;27.60;33.00;;;;;;5079147;28;19995;-63
2021/01/25 04:52:28;;;;;;;;;;;27.60;33.00;;;;;;5093156;28;19912;-63
2021/01/25 04:54:53;;;;;;;;;;;27.60;33.00;;;;;;5092664;28;20438;-63
2021/01/25 04:57:19;;;;;;;;;;;27.60;33.00;;;;;;5066783;28;19912;-63
2021/01/25 04:59:45;;;;;;;;;;;27.60;33.00;;;;;;5055330;28;19955;-63
2021/01/25 05:02:10;;;;;;;;;;;27.60;32.90;;;;;;5083923;28;20255;-63
2021/01/25 05:04:36;;;;;;;;;;;27.50;32.90;;;;;;5072772;28;20259;-62
2021/01/25 05:07:02;;;;;;;;;;;27.60;32.90;;;;;;5081263;28;19913;-63
2021/01/25 05:09:27;;;;;;;;;;;27.60;32.90;;;;;;5072721;28;20445;-62
2021/01/25 05:11:59;;;;;;;;;;;27.60;32.90;;;;;;5073366;28;19913;-63
2021/01/25 05:14:25;;;;;;;;;;;27.50;32.80;;;;;;5082104;28;20377;-63
2021/01/25 05:16:51;;;;;;;;;;;27.50;32.80;;;;;;5079335;28;19913;-62
2021/01/25 05:19:17;;;;;;;;;;;27.50;32.80;;;;;;5077577;28;19916;-63
2021/01/25 05:21:43;;;;;;;;;;;27.50;32.80;;;;;;5092821;28;20357;-63
2021/01/25 05:24:10;;;;;;;;;;;27.50;32.80;;;;;;5093085;28;19920;-62
2021/01/25 05:26:36;;;;;;;;;;;27.50;32.80;;;;;;5084920;28;20150;-62
2021/01/25 05:29:03;;;;;;;;;;;27.50;32.80;;;;;;5074842;28;19959;-63
2021/01/25 05:31:28;;;;;;;;;;;27.50;32.70;;;;;;5083130;28;20437;-62
2021/01/25 05:33:54;;;;;;;;;;;27.50;32.40;;;;;;5077647;28;20027;-63
2021/01/25 05:36:22;;;;;;;;;;;27.50;32.80;;;;;;5086401;28;19913;-63
2021/01/25 05:38:48;;;;;;;;;;;27.50;32.80;;;;;;5072684;28;19912;-63
2021/01/25 05:41:14;;;;;;;;;;;27.50;32.90;;;;;;5073274;28;19938;-63
2021/01/25 05:43:39;;;;;;;;;;;27.50;32.90;;;;;;5072796;28;20267;-62
2021/01/25 05:46:08;;;;;;;;;;;27.40;32.80;;;;;;5066409;28;19912;-62
2021/01/25 05:48:34;;;;;;;;;;;27.40;32.80;;;;;;5092436;28;19923;-62
2021/01/25 05:51:12;;;;;;;;;;;27.40;32.90;;;;;;5092183;28;19915;-63
2021/01/25 05:53:38;;;;;;;;;;;27.40;32.90;;;;;;5092763;28;19916;-62
2021/01/25 05:56:06;;;;;;;;;;;27.40;32.80;;;;;;5088297;28;19982;-62
2021/01/25 05:58:32;;;;;;;;;;;27.40;33.00;;;;;;5080630;28;19966;-63
2021/01/25 06:00:58;;;;;;;;;;;27.40;32.90;;;;;;5078503;28;19912;-63
2021/01/25 06:03:23;;;;;;;;;;;27.40;32.90;;;;;;5072386;28;19909;-62
2021/01/25 06:05:49;;;;;;;;;;;27.40;32.90;;;;;;5056462;28;19912;-63
2021/01/25 06:08:14;;;;;;;;;;;27.40;32.90;;;;;;5092226;28;20370;-62
2021/01/25 06:10:59;;;;;;;;;;;27.40;32.90;;;;;;5091182;28;19908;-62
2021/01/25 06:13:25;;;;;;;;;;;27.40;32.80;;;;;;5073383;28;19924;-62
2021/01/25 06:15:51;;;;;;;;;;;27.40;33.00;;;;;;5065480;28;19912;-63
2021/01/25 06:18:16;;;;;;;;;;;27.40;32.70;;;;;;5072281;28;20259;-63
2021/01/25 06:20:42;;;;;;;;;;;27.30;32.90;;;;;;5067775;28;20405;-62
2021/01/25 06:23:07;;;;;;;;;;;27.30;33.00;;;;;;5074502;28;19908;-62
2021/01/25 06:25:33;;;;;;;;;;;27.40;33.10;;;;;;5072377;28;19909;-62
2021/01/25 06:27:58;;;;;;;;;;;27.30;33.10;;;;;;5088663;28;19919;-62
2021/01/25 06:30:24;;;;;;;;;;;27.30;32.60;;;;;;5072176;28;20021;-62
2021/01/25 06:32:51;;;;;;;;;;;27.30;32.80;;;;;;5083462;28;20314;-62
2021/01/25 06:35:16;;;;;;;;;;;27.30;33.00;;;;;;5095973;28;19983;-62
2021/01/25 06:37:42;;;;;;;;;;;27.30;32.60;;;;;;5081070;28;20366;-60
2021/01/25 06:40:08;;;;;;;;;;;27.40;33.10;;;;;;5075672;28;20027;-64
2021/01/25 06:42:34;;;;;;;;;;;;;;;;;;5075619;28;20042;-59
2021/01/25 06:45:00;;;;;;;;;;;26.90;63.50;;;;;;5075563;28;19936;-50
2021/01/25 06:47:26;;;;;;;;;;;26.50;26.20;;;;;;5085853;28;19919;-56
2021/01/25 06:49:51;;;;;;;;;;;26.40;28.30;;;;;;5078466;28;20025;-51
2021/01/25 06:52:17;;;;;;;;;;;26.50;28.50;;;;;;5078652;28;19991;-51
2021/01/25 06:54:43;;;;;;;;;;;26.70;28.70;;;;;;5095306;28;19923;-52
2021/01/25 06:57:09;;;;;;;;;;;26.90;28.90;;;;;;5095724;28;19916;-54
2021/01/25 06:59:35;;;;;;;;;;;27.00;29.10;;;;;;5094878;28;19908;-50
2021/01/25 07:02:05;;;;;;;;;;;27.00;29.20;;;;;;5095517;28;20007;-52
2021/01/25 07:04:30;;;;;;;;;;;27.10;29.40;;;;;;5091307;28;19912;-50
2021/01/25 07:06:56;;;;;;;;;;;27.10;29.50;;;;;;5075202;28;20015;-51
2021/01/25 07:09:28;;;;;;;;;;;27.10;30.90;;;;;;5074686;28;19935;-52
2021/01/25 07:11:54;;;;;;;;;;;27.10;32.90;;;;;;5074851;28;19916;-49
2021/01/25 07:14:21;;;;;;;;;;;27.20;35.20;;;;;;5074762;28;20297;-58
2021/01/25 07:16:46;;;;;;;;;;;27.20;34.80;;;;;;5079209;28;19916;-58
2021/01/25 07:19:11;;;;;;;;;;;27.30;35.30;;;;;;5091596;28;19908;-57
2021/01/25 07:21:37;;;;;;;;;;;27.20;37.80;;;;;;5057347;28;19909;-55
2021/01/25 07:24:03;;;;;;;;;;;27.30;36.70;;;;;;5072473;28;19912;-60
2021/01/25 07:26:34;;;;;;;;;;;27.50;36.20;;;;;;5055796;28;19915;-61
2021/01/25 07:29:00;;;;;;;;;;;27.60;36.00;;;;;;5056401;28;19959;-57
2021/01/25 07:31:26;;;;;;;;;;;27.70;35.90;;;;;;5074916;28;20317;-53
2021/01/25 07:33:51;;;;;;;;;;;27.80;36.90;;;;;;5083477;28;20065;-57
2021/01/25 07:36:17;;;;;;;;;;;27.90;35.60;;;;;;5084354;28;20421;-60
2021/01/25 07:38:42;;;;;;;;;;;27.90;36.60;;;;;;5074571;28;19915;-52
2021/01/25 07:41:09;;;;;;;;;;;27.90;36.40;;;;;;5074253;28;19909;-55
2021/01/25 07:43:34;;;;;;;;;;;28.00;36.30;;;;;;5073086;28;19909;-59
2021/01/25 07:46:03;;;;;;;;;;;28.00;36.20;;;;;;5056507;28;19909;-57
2021/01/25 07:48:29;;;;;;;;;;;28.00;36.10;;;;;;5074040;28;20354;-54
2021/01/25 07:50:54;;;;;;;;;;;28.10;36.20;;;;;;5078513;28;19918;-59
2021/01/25 07:53:20;;;;;;;;;;;28.10;36.20;;;;;;5094498;28;19912;-51
2021/01/25 07:55:45;;;;;;;;;;;28.20;36.10;;;;;;5094481;28;19908;-49
2021/01/25 07:58:11;;;;;;;;;;;28.20;36.00;;;;;;5094021;28;19919;-49
2021/01/25 08:00:38;;;;;;;;;;;28.20;36.20;;;;;;5094427;28;19916;-60
2021/01/25 08:03:19;;;;;;;;;;;28.30;36.20;;;;;;5094290;28;19915;-60
2021/01/25 08:05:46;;;;;;;;;;;28.30;36.20;;;;;;5069845;28;20431;-64
2021/01/25 08:08:11;;;;;;;;;;;28.30;36.20;;;;;;5055753;28;19912;-56
2021/01/25 08:10:37;;;;;;;;;;;28.30;36.20;;;;;;5055568;28;19908;-56
2021/01/25 08:13:15;;;;;;;;;;;28.40;36.20;;;;;;5073890;28;19912;-60
2021/01/25 08:16:02;;;;;;;;;;;28.40;36.20;;;;;;5074616;28;20231;-59
2021/01/25 08:18:30;;;;;;;;;;;28.40;36.20;;;;;;5072953;28;19927;-61
2021/01/25 08:20:56;;;;;;;;;;;28.40;36.20;;;;;;5073285;28;19908;-52
2021/01/25 08:23:22;;;;;;;;;;;28.40;36.30;;;;;;5073697;28;19916;-61
2021/01/25 08:25:55;;;;;;;;;;;28.40;36.60;;;;;;5061308;28;20346;-63
2021/01/25 08:28:23;;;;;;;;;;;28.40;36.10;;;;;;5079739;28;19912;-58
2021/01/25 08:30:49;;;;;;;;;;;28.40;36.40;;;;;;5073010;28;19943;-57
2021/01/25 08:33:25;;;;;;;;;;;28.50;36.40;;;;;;5093410;28;20354;-57
2021/01/25 08:35:50;;;;;;;;;;;28.50;36.20;;;;;;5093402;28;19908;-57
2021/01/25 08:38:23;;;;;;;;;;;28.30;36.50;;;;;;5093426;28;19912;-62
2021/01/25 08:40:49;;;;;;;;;;;28.20;36.40;;;;;;5092920;28;19973;-55
2021/01/25 08:43:19;;;;;;;;;;;28.20;36.30;;;;;;5089012;28;19967;-58
2021/01/25 08:45:44;;;;;;;;;;;28.30;36.10;;;;;;5076013;28;19913;-56
2021/01/25 08:48:10;;;;;;;;;;;28.50;35.90;;;;;;5060788;28;19924;-60
2021/01/25 08:50:36;;;;;;;;;;;28.60;35.90;;;;;;5083569;28;20408;-58
2021/01/25 08:53:03;;;;;;;;;;;28.70;35.60;;;;;;5073042;28;19912;-52
2021/01/25 08:55:35;;;;;;;;;;;28.70;35.40;;;;;;5072640;28;20011;-51
2021/01/25 08:58:01;;;;;;;;;;;28.70;35.30;;;;;;5075869;28;19999;-62
2021/01/25 09:00:26;;;;;;;;;;;28.70;35.20;;;;;;5074092;28;20000;-59
2021/01/25 09:02:56;;;;;;;;;;;28.80;35.20;;;;;;5072982;28;20365;-59
2021/01/25 09:05:22;;;;;;;;;;;28.90;35.10;;;;;;5072988;28;19908;-59
2021/01/25 09:07:51;;;;;;;;;;;28.90;35.00;;;;;;5072948;28;19916;-55
2021/01/25 09:10:16;;;;;;;;;;;28.90;35.10;;;;;;5073772;28;19908;-61
2021/01/25 09:12:42;;;;;;;;;;;29.00;35.80;;;;;;5086197;28;19912;-59
2021/01/25 09:15:08;;;;;;;;;;;28.40;34.90;;;;;;5081302;28;19978;-62
2021/01/25 09:17:33;;;;;;;;;;;29.10;35.20;;;;;;5072998;28;20018;-62
2021/01/25 09:19:59;;;;;;;;;;;29.30;34.90;;;;;;5072515;28;20016;-60
2021/01/25 09:22:24;;;;;;;;;;;29.50;34.50;;;;;;5087617;28;19913;-61
2021/01/25 09:24:52;;;;;;;;;;;29.70;34.30;;;;;;5092962;28;20350;-59
2021/01/25 09:27:18;;;;;;;;;;;29.90;33.60;;;;;;5076575;28;20338;-59
2021/01/25 09:29:43;;;;;;;;;;;30.00;33.80;;;;;;5072507;28;19925;-59
2021/01/25 09:32:08;;;;;;;;;;;30.20;33.60;;;;;;5086475;28;19973;-59
2021/01/25 09:34:34;;;;;;;;;;;30.30;33.30;;;;;;5073729;28;19928;-61
2021/01/25 09:37:02;;;;;;;;;;;30.50;33.20;;;;;;5072679;28;19946;-62
2021/01/25 09:39:28;;;;;;;;;;;30.60;32.90;;;;;;5072676;28;20310;-65
2021/01/25 09:41:53;;;;;;;;;;;30.70;32.70;;;;;;5073673;28;19959;-60
2021/01/25 09:44:19;;;;;;;;;;;30.80;32.30;;;;;;5092109;28;19908;-62
2021/01/25 09:46:44;;;;;;;;;;;30.90;32.30;;;;;;5086054;28;20002;-61
2021/01/25 09:49:10;;;;;;;;;;;30.90;32.10;;;;;;5092687;28;19908;-64
2021/01/25 09:51:35;;;;;;;;;;;31.00;32.10;;;;;;5092419;28;19999;-63
2021/01/25 09:54:01;;;;;;;;;;;31.10;32.00;;;;;;5092427;28;19936;-63
2021/01/25 09:56:26;;;;;;;;;;;31.20;31.60;;;;;;5092685;28;19951;-63
2021/01/25 09:58:52;;;;;;;;;;;31.20;31.80;;;;;;5081066;28;19938;-65
2021/01/25 10:01:18;;;;;;;;;;;29.60;24.10;;;;;;5072215;28;19913;-62
2021/01/25 10:03:43;;;;;;;;;;;29.10;27.40;;;;;;5072440;28;20393;-63
2021/01/25 10:06:09;;;;;;;;;;;29.40;28.20;;;;;;5072641;28;20282;-57
2021/01/25 10:08:36;;;;;;;;;;;29.70;28.40;;;;;;5076042;28;19952;-65
2021/01/25 10:11:02;;;;;;;;;;;30.10;28.80;;;;;;5088483;28;19920;-52
2021/01/25 10:13:27;;;;;;;;;;;30.40;29.00;;;;;;5084131;28;20286;-58
2021/01/25 10:15:53;;;;;;;;;;;30.60;28.70;;;;;;5077362;28;19912;-61
2021/01/25 10:18:18;;;;;;;;;;;30.80;28.90;;;;;;5096303;28;19961;-60
2021/01/25 10:20:44;;;;;;;;;;;31.00;29.00;;;;;;5096130;28;19915;-60
2021/01/25 10:23:09;;;;;;;;;;;31.10;29.10;;;;;;5095992;28;19912;-54
2021/01/25 10:25:35;;;;;;;;;;;31.20;29.00;;;;;;5095923;28;20282;-60
2021/01/25 10:28:01;;;;;;;;;;;31.30;29.00;;;;;;5095151;28;19950;-61
2021/01/25 10:30:27;;;;;;;;;;;31.30;28.90;;;;;;5075552;28;19925;-60
2021/01/25 10:32:52;;;;;;;;;;;31.40;29.10;;;;;;5075817;28;19908;-61
2021/01/25 10:35:19;;;;;;;;;;;31.40;29.00;;;;;;5075685;28;20366;-70
2021/01/25 10:37:44;;;;;;;;;;;31.50;29.00;;;;;;5089532;28;19995;-61
2021/01/25 10:40:10;;;;;;;;;;;31.50;29.00;;;;;;5095349;28;19950;-54
2021/01/25 10:42:35;;;;;;;;;;;31.60;29.20;;;;;;5077119;28;19912;-49
2021/01/25 10:45:01;;;;;;;;;;;31.60;29.10;;;;;;5078469;28;19947;-62
2021/01/25 10:47:26;;;;;;;;;;;31.70;29.20;;;;;;5092122;28;19927;-62
2021/01/25 10:49:52;;;;;;;;;;;31.70;29.20;;;;;;5095441;28;19943;-57
2021/01/25 10:52:17;;;;;;;;;;;31.80;29.20;;;;;;5091709;28;19957;-62
2021/01/25 10:54:43;;;;;;;;;;;31.80;29.20;;;;;;5085522;28;20336;-56
2021/01/25 10:57:08;;;;;;;;;;;31.80;29.10;;;;;;5075720;28;19912;-57
2021/01/25 10:59:34;;;;;;;;;;;31.80;29.20;;;;;;5095263;28;19919;-57
2021/01/25 11:02:00;;;;;;;;;;;31.80;29.10;;;;;;5079146;28;19931;-53
2021/01/25 11:04:25;;;;;;;;;;;31.90;29.20;;;;;;5075253;28;20372;-60
2021/01/25 11:06:51;;;;;;;;;;;31.80;29.30;;;;;;5075136;28;19908;-59
2021/01/25 11:09:16;;;;;;;;;;;31.80;29.30;;;;;;5074892;28;20255;-63
2021/01/25 11:11:42;;;;;;;;;;;31.80;29.30;;;;;;5075764;28;20003;-64
2021/01/25 11:14:07;;;;;;;;;;;31.90;29.30;;;;;;5074847;28;20282;-60
2021/01/25 11:16:33;;;;;;;;;;;31.90;29.40;;;;;;5088563;28;19912;-60
2021/01/25 11:18:58;;;;;;;;;;;31.90;29.50;;;;;;5084273;28;20356;-63
2021/01/25 11:21:24;;;;;;;;;;;31.90;29.60;;;;;;5094886;28;19912;-61
2021/01/25 11:23:50;;;;;;;;;;;32.00;29.60;;;;;;5094604;28;19912;-60
2021/01/25 11:26:17;;;;;;;;;;;32.10;29.70;;;;;;5095043;28;19912;-61
2021/01/25 11:28:43;;;;;;;;;;;;;;;;;;5081392;28;20379;-50
2021/01/25 11:31:08;;;;;;;;;;;31.70;26.80;;;;;;5090095;28;20026;-51
2021/01/25 11:33:34;;;;;;;;;;;31.30;28.70;;;;;;5086301;28;19935;-50
2021/01/25 11:35:59;;;;;;;;;;;31.30;29.10;;;;;;5094553;28;19935;-50
2021/01/25 11:38:25;;;;;;;;;;;31.20;29.50;;;;;;5094567;28;20362;-51
2021/01/25 11:40:50;;;;;;;;;;;31.20;29.90;;;;;;5094700;28;19919;-51
2021/01/25 11:43:16;;;;;;;;;;;31.10;30.00;;;;;;5094704;28;20397;-48
2021/01/25 11:45:41;;;;;;;;;;;31.00;30.10;;;;;;5081243;28;19916;-49
2021/01/25 11:48:07;;;;;;;;;;;31.00;30.40;;;;;;5074119;28;19991;-51
2021/01/25 11:50:32;;;;;;;;;;;30.90;30.50;;;;;;5079151;28;20358;-48
2021/01/25 11:52:58;;;;;;;;;;;30.80;30.30;;;;;;5090682;28;19917;-51
2021/01/25 11:55:23;;;;;;;;;;;30.80;30.70;;;;;;5075292;28;19960;-49
2021/01/25 11:57:49;;;;;;;;;;;30.70;30.90;;;;;;5074237;28;20274;-51
2021/01/25 12:00:14;;;;;;;;;;;30.60;31.10;;;;;;5084638;28;20340;-52
2021/01/25 12:02:41;;;;;;;;;;;30.60;31.00;;;;;;5094136;28;19912;-51
2021/01/25 12:05:07;;;;;;;;;;;30.50;31.10;;;;;;5083707;28;19923;-56
2021/01/25 12:07:33;;;;;;;;;;;30.40;31.10;;;;;;5073960;28;19919;-47
2021/01/25 12:09:58;;;;;;;;;;;30.30;31.80;;;;;;5080136;28;19908;-60
2021/01/25 12:12:24;;;;;;;;;;;30.20;32.10;;;;;;5077393;28;19958;-49
2021/01/25 12:14:49;;;;;;;;;;;30.20;32.20;;;;;;5078568;28;20281;-55
2021/01/25 12:17:15;;;;;;;;;;;30.20;32.00;;;;;;5093877;28;19954;-52
2021/01/25 12:19:40;;;;;;;;;;;30.20;31.70;;;;;;5089221;28;19909;-51
2021/01/25 12:22:06;;;;;;;;;;;30.30;32.00;;;;;;5088348;28;20359;-49
2021/01/25 12:24:31;;;;;;;;;;;30.30;31.60;;;;;;5083192;28;19916;-49
2021/01/25 12:26:57;;;;;;;;;;;30.30;31.70;;;;;;5088074;28;19955;-52
2021/01/25 12:29:22;;;;;;;;;;;30.30;31.90;;;;;;5090697;28;19920;-58
2021/01/25 12:31:48;;;;;;;;;;;30.20;32.10;;;;;;5073407;28;19959;-57
2021/01/25 12:34:14;;;;;;;;;;;30.20;31.90;;;;;;5078523;28;19916;-53
2021/01/25 12:36:40;;;;;;;;;;;30.20;32.30;;;;;;5073579;28;19913;-51
2021/01/25 12:39:05;;;;;;;;;;;30.20;32.20;;;;;;5073027;28;19908;-60
2021/01/25 12:41:31;;;;;;;;;;;30.20;32.10;;;;;;5092458;28;19943;-56
2021/01/25 12:43:56;;;;;;;;;;;30.30;32.30;;;;;;5093253;28;19918;-61
2021/01/25 12:46:22;;;;;;;;;;;30.50;31.90;;;;;;5074751;28;19923;-51
2021/01/25 12:48:48;;;;;;;;;;;30.60;31.40;;;;;;5072902;28;19946;-56
2021/01/25 12:51:13;;;;;;;;;;;30.70;31.20;;;;;;5089130;28;20346;-60
2021/01/25 12:53:38;;;;;;;;;;;30.90;31.20;;;;;;5093085;28;20246;-61
2021/01/25 12:56:04;;;;;;;;;;;31.00;30.80;;;;;;5083652;28;19913;-60
2021/01/25 12:58:30;;;;;;;;;;;31.10;30.40;;;;;;5093237;28;19908;-58
2021/01/25 13:00:55;;;;;;;;;;;31.20;30.20;;;;;;5077877;28;20293;-60
2021/01/25 13:03:21;;;;;;;;;;;31.40;30.10;;;;;;5073088;28;19916;-59
2021/01/25 13:05:46;;;;;;;;;;;31.40;30.00;;;;;;5072174;28;20083;-58
2021/01/25 13:08:12;;;;;;;;;;;31.50;29.90;;;;;;5072932;28;19908;-62
2021/01/25 13:10:37;;;;;;;;;;;31.70;29.90;;;;;;5084549;28;19920;-60
2021/01/25 13:13:04;;;;;;;;;;;31.80;29.80;;;;;;5073949;28;19936;-61
2021/01/25 13:15:30;;;;;;;;;;;31.80;29.80;;;;;;5072508;28;20401;-61
2021/01/25 13:17:55;;;;;;;;;;;31.80;29.70;;;;;;5072379;28;19909;-61
2021/01/25 13:20:22;;;;;;;;;;;31.90;29.60;;;;;;5072376;28;19909;-62
2021/01/25 13:22:48;;;;;;;;;;;32.00;29.70;;;;;;5073421;28;19916;-58
2021/01/25 13:25:14;;;;;;;;;;;32.00;29.60;;;;;;5073175;28;19921;-61
2021/01/25 13:27:39;;;;;;;;;;;32.10;29.60;;;;;;5086342;28;19983;-53
2021/01/25 13:30:05;;;;;;;;;;;32.10;29.70;;;;;;5092575;28;20395;-61
2021/01/25 13:32:31;;;;;;;;;;;32.10;29.50;;;;;;5092753;28;19908;-59
2021/01/25 13:34:56;;;;;;;;;;;32.20;29.60;;;;;;5090847;28;20365;-58
2021/01/25 13:37:22;;;;;;;;;;;32.20;29.60;;;;;;5073414;28;19991;-54
2021/01/25 13:39:47;;;;;;;;;;;32.20;29.50;;;;;;5072379;28;19951;-59
2021/01/25 13:42:13;;;;;;;;;;;32.30;29.60;;;;;;5075936;28;19943;-61
2021/01/25 13:44:38;;;;;;;;;;;32.30;29.50;;;;;;5076500;28;19912;-56
2021/01/25 13:47:04;;;;;;;;;;;32.40;29.50;;;;;;5076511;28;19912;-54
2021/01/25 13:49:30;;;;;;;;;;;32.40;29.60;;;;;;5076577;28;19912;-56
2021/01/25 13:51:55;;;;;;;;;;;32.40;29.80;;;;;;5076346;28;19909;-58
2021/01/25 13:54:20;;;;;;;;;;;32.40;29.80;;;;;;5076190;28;20317;-60
2021/01/25 13:56:46;;;;;;;;;;;32.50;29.80;;;;;;5086158;28;19913;-54
2021/01/25 13:59:12;;;;;;;;;;;31.90;28.00;;;;;;5096754;28;19912;-52
2021/01/25 14:01:38;;;;;;;;;;;31.80;27.70;;;;;;5092570;28;20429;-47
2021/01/25 14:04:03;;;;;;;;;;;31.80;29.00;;;;;;5077230;28;19920;-50
2021/01/25 14:06:29;;;;;;;;;;;31.80;29.50;;;;;;5083840;28;19916;-51
2021/01/25 14:08:54;;;;;;;;;;;31.70;29.70;;;;;;5086236;28;19913;-61
2021/01/25 14:11:22;;;;;;;;;;;31.70;29.80;;;;;;5076362;28;19931;-56